createdAt,value
2023-02-15T00:05:47.974Z,3.00
2023-02-15T00:20:49.899Z,3.10
2023-02-15T00:35:58.288Z,3.10
2023-02-15T00:51:01.820Z,2.90
2023-02-15T01:06:04.900Z,2.80
2023-02-15T01:21:14.886Z,2.10
2023-02-15T01:36:18.509Z,1.80
2023-02-15T01:51:24.962Z,1.40
2023-02-15T02:06:27.992Z,1.60
2023-02-15T02:21:51.197Z,1.10
2023-02-15T02:37:21.210Z,1.60
2023-02-15T02:52:49.033Z,1.30
2023-02-15T03:07:52.794Z,1.30
2023-02-15T03:23:00.991Z,1.30
2023-02-15T03:38:04.783Z,0.90
2023-02-15T03:53:10.900Z,1.10
2023-02-15T04:08:13.813Z,1.40
2023-02-15T04:23:34.184Z,1.20
2023-02-15T04:38:36.088Z,1.00
2023-02-15T04:53:38.122Z,1.20
2023-02-15T05:08:40.054Z,1.10
2023-02-15T05:23:42.004Z,0.90
2023-02-15T05:38:43.966Z,0.80
2023-02-15T05:53:46.130Z,0.90
2023-02-15T06:08:48.069Z,0.90
2023-02-15T06:23:50.007Z,0.80
2023-02-15T06:38:51.916Z,1.00
2023-02-15T06:53:53.863Z,1.20
2023-02-15T07:08:55.791Z,1.40
2023-02-15T07:24:01.300Z,1.60
2023-02-15T07:39:03.293Z,1.90
2023-02-15T07:54:05.310Z,2.10
2023-02-15T08:09:08.987Z,2.80
2023-02-15T08:24:12.733Z,4.10
2023-02-15T08:39:16.339Z,5.20
2023-02-15T08:54:22.880Z,5.60
2023-02-15T09:09:25.032Z,5.90
2023-02-15T09:24:27.037Z,6.10
2023-02-15T09:39:29.137Z,7.10
2023-02-15T09:54:43.285Z,7.60
2023-02-15T10:10:24.153Z,7.60
2023-02-15T10:25:56.349Z,8.00
2023-02-15T10:41:16.925Z,7.60
2023-02-15T10:56:37.838Z,7.40
2023-02-15T11:11:45.901Z,7.30
2023-02-15T11:26:55.117Z,7.50
2023-02-15T11:42:01.946Z,7.60
2023-02-15T11:57:48.522Z,7.60
2023-02-15T12:13:16.364Z,7.80
2023-02-15T12:28:39.003Z,8.00
2023-02-15T12:43:42.718Z,8.10
2023-02-15T12:58:47.037Z,8.20
2023-02-15T13:14:03.968Z,8.30
2023-02-15T13:29:18.556Z,8.40
2023-02-15T13:44:39.121Z,8.30
2023-02-15T13:59:57.548Z,8.30
2023-02-15T14:15:37.251Z,8.30
2023-02-15T14:30:51.659Z,8.10
2023-02-15T14:46:16.580Z,8.10
2023-02-15T15:01:36.885Z,8.10
2023-02-15T15:16:38.866Z,8.00
2023-02-15T15:31:53.794Z,7.70
2023-02-15T15:47:10.538Z,7.60
2023-02-15T16:02:19.602Z,7.40
2023-02-15T16:17:27.903Z,7.10
2023-02-15T16:32:29.851Z,6.90
2023-02-15T16:47:34.986Z,6.60
2023-02-15T17:02:55.160Z,6.50
2023-02-15T17:18:20.322Z,6.30
2023-02-15T17:33:37.988Z,6.20
2023-02-15T17:48:42.732Z,5.80
2023-02-15T18:04:09.989Z,5.80
2023-02-15T18:19:38.986Z,5.50
2023-02-15T18:34:43.014Z,5.00
2023-02-15T18:49:45.274Z,4.60
2023-02-15T19:04:47.861Z,4.50
2023-02-15T19:19:51.382Z,4.30
2023-02-15T19:34:53.739Z,4.00
2023-02-15T19:50:01.272Z,4.10
2023-02-15T20:05:03.362Z,3.70
2023-02-15T20:20:05.843Z,3.40
2023-02-15T20:35:09.037Z,3.30
2023-02-15T20:50:11.111Z,3.30
2023-02-15T21:05:17.238Z,3.20
2023-02-15T21:20:19.651Z,3.10
2023-02-15T21:35:22.367Z,2.80
2023-02-15T21:50:43.958Z,2.80
2023-02-15T22:05:45.933Z,2.70
2023-02-15T22:20:48.029Z,2.40
2023-02-15T22:35:50.582Z,2.00
2023-02-15T22:50:52.582Z,2.10
2023-02-15T23:05:54.805Z,2.20
2023-02-15T23:20:59.882Z,2.20
2023-02-15T23:36:01.838Z,2.10
2023-02-15T23:51:05.122Z,2.00
